sensor_id;sensor_type;location;lat;lon;timestamp;pressure;altitude;pressure_sealevel;temperature;humidity
53041;BME280;39326;42.650;23.248;2022-12-18T00:01:32;93258.59;;;6.22;88.96
53041;BME280;39326;42.650;23.248;2022-12-18T00:03:59;93274.69;;;6.01;89.41
53041;BME280;39326;42.650;23.248;2022-12-18T00:06:27;93276.06;;;6.11;90.08
53041;BME280;39326;42.650;23.248;2022-12-18T00:08:54;93275.19;;;6.19;89.08
53041;BME280;39326;42.650;23.248;2022-12-18T00:11:21;93273.91;;;6.01;89.52
53041;BME280;39326;42.650;23.248;2022-12-18T00:13:48;93278.53;;;6.04;89.75
53041;BME280;39326;42.650;23.248;2022-12-18T00:16:16;93278.84;;;6.15;89.92
53041;BME280;39326;42.650;23.248;2022-12-18T00:18:42;93283.41;;;6.02;90.25
53041;BME280;39326;42.650;23.248;2022-12-18T00:21:10;93283.63;;;5.97;90.14
53041;BME280;39326;42.650;23.248;2022-12-18T00:23:37;93289.03;;;6.00;89.63
53041;BME280;39326;42.650;23.248;2022-12-18T00:26:07;93289.34;;;5.99;89.23
53041;BME280;39326;42.650;23.248;2022-12-18T00:28:33;93289.31;;;5.71;89.98
53041;BME280;39326;42.650;23.248;2022-12-18T00:31:07;93282.16;;;5.59;89.90
53041;BME280;39326;42.650;23.248;2022-12-18T00:33:33;93289.53;;;5.54;89.89
53041;BME280;39326;42.650;23.248;2022-12-18T00:36:09;93290.66;;;5.28;90.65
53041;BME280;39326;42.650;23.248;2022-12-18T00:38:34;93293.84;;;5.34;90.79
53041;BME280;39326;42.650;23.248;2022-12-18T00:41:00;93298.03;;;5.47;91.19
53041;BME280;39326;42.650;23.248;2022-12-18T00:43:26;93296.50;;;5.46;90.25
53041;BME280;39326;42.650;23.248;2022-12-18T00:45:52;93308.03;;;5.17;90.65
53041;BME280;39326;42.650;23.248;2022-12-18T00:48:17;93302.00;;;5.29;90.54
53041;BME280;39326;42.650;23.248;2022-12-18T00:50:43;93296.38;;;5.30;90.30
53041;BME280;39326;42.650;23.248;2022-12-18T00:53:10;93311.03;;;5.28;90.76
53041;BME280;39326;42.650;23.248;2022-12-18T00:55:37;93304.63;;;5.16;90.83
53041;BME280;39326;42.650;23.248;2022-12-18T00:58:03;93300.13;;;5.17;90.83
53041;BME280;39326;42.650;23.248;2022-12-18T01:00:29;93312.56;;;5.16;91.31
53041;BME280;39326;42.650;23.248;2022-12-18T01:02:54;93303.28;;;4.98;91.95
53041;BME280;39326;42.650;23.248;2022-12-18T01:05:20;93318.59;;;5.05;91.90
53041;BME280;39326;42.650;23.248;2022-12-18T01:07:45;93309.63;;;5.18;91.53
53041;BME280;39326;42.650;23.248;2022-12-18T01:10:12;93307.19;;;5.13;90.99
53041;BME280;39326;42.650;23.248;2022-12-18T01:12:38;93320.03;;;5.02;91.04
53041;BME280;39326;42.650;23.248;2022-12-18T01:15:06;93309.06;;;5.12;90.88
53041;BME280;39326;42.650;23.248;2022-12-18T01:17:32;93320.28;;;5.09;90.37
53041;BME280;39326;42.650;23.248;2022-12-18T01:19:57;93324.78;;;5.09;90.00
53041;BME280;39326;42.650;23.248;2022-12-18T01:22:23;93320.69;;;4.87;90.04
53041;BME280;39326;42.650;23.248;2022-12-18T01:24:48;93307.16;;;4.55;90.49
53041;BME280;39326;42.650;23.248;2022-12-18T01:27:14;93324.91;;;4.67;90.51
53041;BME280;39326;42.650;23.248;2022-12-18T01:29:39;93316.88;;;4.63;90.63
53041;BME280;39326;42.650;23.248;2022-12-18T01:32:05;93324.69;;;4.72;90.80
53041;BME280;39326;42.650;23.248;2022-12-18T01:34:30;93330.22;;;4.79;90.47
53041;BME280;39326;42.650;23.248;2022-12-18T01:36:56;93335.97;;;4.81;90.28
53041;BME280;39326;42.650;23.248;2022-12-18T01:39:23;93331.56;;;4.85;90.13
53041;BME280;39326;42.650;23.248;2022-12-18T01:41:49;93336.81;;;4.73;89.49
53041;BME280;39326;42.650;23.248;2022-12-18T01:48:00;93336.34;;;4.59;89.62
53041;BME280;39326;42.650;23.248;2022-12-18T01:50:39;93346.47;;;4.57;89.52
53041;BME280;39326;42.650;23.248;2022-12-18T01:53:14;93348.44;;;4.60;89.35
53041;BME280;39326;42.650;23.248;2022-12-18T01:55:52;93347.81;;;4.42;89.62
53041;BME280;39326;42.650;23.248;2022-12-18T01:58:20;93349.03;;;4.45;89.81
53041;BME280;39326;42.650;23.248;2022-12-18T02:00:48;93354.31;;;4.45;90.13
53041;BME280;39326;42.650;23.248;2022-12-18T02:03:13;93340.16;;;4.28;90.27
53041;BME280;39326;42.650;23.248;2022-12-18T02:06:13;93351.75;;;4.36;90.55
53041;BME280;39326;42.650;23.248;2022-12-18T02:08:50;93351.66;;;4.03;90.28
53041;BME280;39326;42.650;23.248;2022-12-18T02:11:29;93356.84;;;3.91;91.08
53041;BME280;39326;42.650;23.248;2022-12-18T02:14:11;93352.06;;;3.93;91.36
53041;BME280;39326;42.650;23.248;2022-12-18T02:17:18;93354.19;;;3.99;90.94
53041;BME280;39326;42.650;23.248;2022-12-18T02:20:00;93361.59;;;4.06;90.83
53041;BME280;39326;42.650;23.248;2022-12-18T02:25:21;93367.94;;;4.13;90.72
53041;BME280;39326;42.650;23.248;2022-12-18T02:27:52;93366.72;;;4.02;90.20
53041;BME280;39326;42.650;23.248;2022-12-18T02:30:19;93366.81;;;3.85;90.01
53041;BME280;39326;42.650;23.248;2022-12-18T02:32:49;93372.78;;;4.03;90.43
53041;BME280;39326;42.650;23.248;2022-12-18T02:35:24;93369.19;;;4.07;90.37
53041;BME280;39326;42.650;23.248;2022-12-18T02:37:51;93373.34;;;4.08;90.17
53041;BME280;39326;42.650;23.248;2022-12-18T02:40:19;93380.03;;;4.14;90.17
53041;BME280;39326;42.650;23.248;2022-12-18T02:42:44;93383.06;;;4.25;89.71
53041;BME280;39326;42.650;23.248;2022-12-18T02:45:10;93374.63;;;4.11;90.06
53041;BME280;39326;42.650;23.248;2022-12-18T02:47:41;93375.09;;;4.04;89.96
53041;BME280;39326;42.650;23.248;2022-12-18T02:50:16;93376.25;;;3.95;90.11
53041;BME280;39326;42.650;23.248;2022-12-18T03:00:48;93386.94;;;3.69;90.79
53041;BME280;39326;42.650;23.248;2022-12-18T03:03:41;93391.94;;;3.61;91.53
53041;BME280;39326;42.650;23.248;2022-12-18T03:06:14;93386.19;;;3.68;90.74
53041;BME280;39326;42.650;23.248;2022-12-18T03:08:48;93395.47;;;3.66;91.38
53041;BME280;39326;42.650;23.248;2022-12-18T03:11:15;93392.41;;;3.64;90.84
53041;BME280;39326;42.650;23.248;2022-12-18T03:13:42;93397.75;;;3.46;91.36
53041;BME280;39326;42.650;23.248;2022-12-18T03:16:11;93405.81;;;3.50;91.30
53041;BME280;39326;42.650;23.248;2022-12-18T03:18:46;93411.19;;;3.53;90.82
53041;BME280;39326;42.650;23.248;2022-12-18T03:21:14;93415.41;;;3.54;90.59
53041;BME280;39326;42.650;23.248;2022-12-18T03:23:45;93412.06;;;3.66;90.03
53041;BME280;39326;42.650;23.248;2022-12-18T03:26:15;93413.16;;;3.74;90.11
53041;BME280;39326;42.650;23.248;2022-12-18T03:28:46;93413.03;;;3.61;90.67
53041;BME280;39326;42.650;23.248;2022-12-18T03:31:14;93412.56;;;3.59;90.39
53041;BME280;39326;42.650;23.248;2022-12-18T03:33:46;93417.72;;;3.56;89.21
53041;BME280;39326;42.650;23.248;2022-12-18T03:36:13;93423.44;;;3.58;90.06
53041;BME280;39326;42.650;23.248;2022-12-18T03:38:39;93417.25;;;3.54;89.37
53041;BME280;39326;42.650;23.248;2022-12-18T03:47:14;93440.34;;;3.57;89.05
53041;BME280;39326;42.650;23.248;2022-12-18T03:49:22;93451.41;;;3.50;89.66
53041;BME280;39326;42.650;23.248;2022-12-18T03:51:59;93445.13;;;3.64;89.61
53041;BME280;39326;42.650;23.248;2022-12-18T03:54:28;93443.03;;;3.40;89.62
53041;BME280;39326;42.650;23.248;2022-12-18T03:56:59;93446.63;;;3.44;89.75
53041;BME280;39326;42.650;23.248;2022-12-18T03:59:27;93452.84;;;3.22;89.49
53041;BME280;39326;42.650;23.248;2022-12-18T04:01:55;93448.53;;;3.17;89.55
53041;BME280;39326;42.650;23.248;2022-12-18T04:04:24;93459.06;;;3.26;90.20
53041;BME280;39326;42.650;23.248;2022-12-18T04:06:50;93457.66;;;3.28;89.50
53041;BME280;39326;42.650;23.248;2022-12-18T04:09:16;93461.06;;;3.29;89.30
53041;BME280;39326;42.650;23.248;2022-12-18T04:11:41;93456.88;;;3.37;89.54
53041;BME280;39326;42.650;23.248;2022-12-18T04:14:09;93459.66;;;3.31;89.87
53041;BME280;39326;42.650;23.248;2022-12-18T04:16:35;93467.44;;;3.19;89.25
53041;BME280;39326;42.650;23.248;2022-12-18T04:19:00;93478.75;;;3.20;89.05
53041;BME280;39326;42.650;23.248;2022-12-18T04:21:26;93476.41;;;3.27;88.80
53041;BME280;39326;42.650;23.248;2022-12-18T04:23:51;93480.31;;;3.21;88.65
53041;BME280;39326;42.650;23.248;2022-12-18T04:26:16;93486.50;;;3.16;88.86
53041;BME280;39326;42.650;23.248;2022-12-18T04:28:42;93488.22;;;3.21;87.94
53041;BME280;39326;42.650;23.248;2022-12-18T04:31:07;93490.88;;;3.12;88.13
53041;BME280;39326;42.650;23.248;2022-12-18T04:33:33;93498.44;;;3.22;88.38
53041;BME280;39326;42.650;23.248;2022-12-18T04:35:58;93496.72;;;3.26;88.07
53041;BME280;39326;42.650;23.248;2022-12-18T04:38:24;93507.13;;;3.31;87.35
53041;BME280;39326;42.650;23.248;2022-12-18T04:40:49;93517.66;;;3.31;87.32
53041;BME280;39326;42.650;23.248;2022-12-18T04:43:15;93523.25;;;3.13;87.36
53041;BME280;39326;42.650;23.248;2022-12-18T04:45:40;93520.16;;;3.02;86.80
53041;BME280;39326;42.650;23.248;2022-12-18T04:48:05;93522.03;;;3.01;86.79
53041;BME280;39326;42.650;23.248;2022-12-18T04:50:31;93514.09;;;3.10;87.24
53041;BME280;39326;42.650;23.248;2022-12-18T04:52:56;93521.56;;;2.99;87.55
53041;BME280;39326;42.650;23.248;2022-12-18T04:55:22;93527.59;;;3.00;87.01
53041;BME280;39326;42.650;23.248;2022-12-18T04:57:47;93538.75;;;2.97;87.71
53041;BME280;39326;42.650;23.248;2022-12-18T05:00:13;93538.44;;;3.16;87.54
53041;BME280;39326;42.650;23.248;2022-12-18T05:02:39;93540.91;;;3.21;87.24
53041;BME280;39326;42.650;23.248;2022-12-18T05:05:05;93530.25;;;3.00;86.14
53041;BME280;39326;42.650;23.248;2022-12-18T05:07:30;93538.91;;;3.09;85.94
53041;BME280;39326;42.650;23.248;2022-12-18T05:09:56;93541.56;;;3.00;84.98
53041;BME280;39326;42.650;23.248;2022-12-18T05:12:24;93550.69;;;3.03;84.81
53041;BME280;39326;42.650;23.248;2022-12-18T05:14:50;93550.53;;;2.82;86.08
53041;BME280;39326;42.650;23.248;2022-12-18T05:17:15;93549.44;;;2.74;85.60
53041;BME280;39326;42.650;23.248;2022-12-18T05:19:41;93542.47;;;2.70;86.54
53041;BME280;39326;42.650;23.248;2022-12-18T05:22:06;93552.06;;;2.74;86.54
53041;BME280;39326;42.650;23.248;2022-12-18T05:24:31;93548.97;;;2.72;86.78
53041;BME280;39326;42.650;23.248;2022-12-18T05:26:57;93553.31;;;2.68;86.29
53041;BME280;39326;42.650;23.248;2022-12-18T05:29:22;93566.34;;;2.73;87.32
53041;BME280;39326;42.650;23.248;2022-12-18T05:31:47;93572.84;;;2.85;86.32
53041;BME280;39326;42.650;23.248;2022-12-18T05:34:13;93569.31;;;2.98;85.50
53041;BME280;39326;42.650;23.248;2022-12-18T05:36:38;93577.16;;;2.72;85.84
53041;BME280;39326;42.650;23.248;2022-12-18T05:39:04;93584.78;;;2.82;85.52
53041;BME280;39326;42.650;23.248;2022-12-18T05:41:29;93582.47;;;2.98;85.44
53041;BME280;39326;42.650;23.248;2022-12-18T05:43:55;93583.56;;;3.05;84.75
53041;BME280;39326;42.650;23.248;2022-12-18T05:46:20;93589.91;;;2.96;85.29
53041;BME280;39326;42.650;23.248;2022-12-18T05:48:46;93588.50;;;2.90;85.38
53041;BME280;39326;42.650;23.248;2022-12-18T05:51:14;93586.34;;;3.00;85.17
53041;BME280;39326;42.650;23.248;2022-12-18T05:53:41;93597.66;;;2.92;84.79
53041;BME280;39326;42.650;23.248;2022-12-18T05:56:12;93593.63;;;2.86;85.09
53041;BME280;39326;42.650;23.248;2022-12-18T05:58:38;93597.16;;;2.82;86.25
53041;BME280;39326;42.650;23.248;2022-12-18T06:01:24;93596.81;;;2.66;84.35
53041;BME280;39326;42.650;23.248;2022-12-18T06:03:50;93591.91;;;2.73;84.88
53041;BME280;39326;42.650;23.248;2022-12-18T06:06:24;93597.63;;;2.66;85.57
53041;BME280;39326;42.650;23.248;2022-12-18T06:08:50;93605.78;;;2.56;85.24
53041;BME280;39326;42.650;23.248;2022-12-18T06:11:21;93606.56;;;2.65;85.48
53041;BME280;39326;42.650;23.248;2022-12-18T06:13:50;93617.28;;;2.69;85.19
53041;BME280;39326;42.650;23.248;2022-12-18T06:16:15;93619.66;;;2.96;83.30
53041;BME280;39326;42.650;23.248;2022-12-18T06:18:40;93625.88;;;3.00;83.48
53041;BME280;39326;42.650;23.248;2022-12-18T06:21:06;93622.13;;;2.93;83.15
53041;BME280;39326;42.650;23.248;2022-12-18T06:23:31;93620.25;;;2.85;83.98
53041;BME280;39326;42.650;23.248;2022-12-18T06:25:57;93623.69;;;2.85;83.98
53041;BME280;39326;42.650;23.248;2022-12-18T06:28:22;93619.78;;;2.74;84.37
53041;BME280;39326;42.650;23.248;2022-12-18T06:30:48;93620.25;;;2.85;84.04
53041;BME280;39326;42.650;23.248;2022-12-18T06:33:15;93630.03;;;2.93;83.59
53041;BME280;39326;42.650;23.248;2022-12-18T06:35:41;93636.34;;;2.74;83.38
53041;BME280;39326;42.650;23.248;2022-12-18T06:38:06;93629.69;;;2.77;84.17
53041;BME280;39326;42.650;23.248;2022-12-18T06:40:36;93647.03;;;2.69;82.36
53041;BME280;39326;42.650;23.248;2022-12-18T06:43:01;93643.16;;;2.75;82.35
53041;BME280;39326;42.650;23.248;2022-12-18T06:45:27;93644.59;;;2.90;81.61
53041;BME280;39326;42.650;23.248;2022-12-18T06:47:53;93655.28;;;2.85;81.85
53041;BME280;39326;42.650;23.248;2022-12-18T06:50:18;93651.84;;;2.85;82.57
53041;BME280;39326;42.650;23.248;2022-12-18T06:52:44;93660.00;;;2.66;81.75
53041;BME280;39326;42.650;23.248;2022-12-18T06:55:10;93654.59;;;2.62;82.52
53041;BME280;39326;42.650;23.248;2022-12-18T06:57:36;93660.81;;;2.75;81.87
53041;BME280;39326;42.650;23.248;2022-12-18T07:00:04;93658.66;;;2.77;81.98
53041;BME280;39326;42.650;23.248;2022-12-18T07:02:30;93664.38;;;2.70;82.11
53041;BME280;39326;42.650;23.248;2022-12-18T07:04:55;93674.78;;;2.84;81.10
53041;BME280;39326;42.650;23.248;2022-12-18T07:07:21;93665.78;;;2.76;80.82
53041;BME280;39326;42.650;23.248;2022-12-18T07:09:46;93677.28;;;2.80;81.31
53041;BME280;39326;42.650;23.248;2022-12-18T07:12:12;93673.72;;;2.85;80.81
53041;BME280;39326;42.650;23.248;2022-12-18T07:14:37;93674.16;;;2.78;80.43
53041;BME280;39326;42.650;23.248;2022-12-18T07:17:02;93678.94;;;2.76;80.28
53041;BME280;39326;42.650;23.248;2022-12-18T07:19:29;93688.59;;;2.90;80.44
53041;BME280;39326;42.650;23.248;2022-12-18T07:21:54;93675.16;;;3.00;80.33
53041;BME280;39326;42.650;23.248;2022-12-18T07:24:19;93670.78;;;2.95;79.98
53041;BME280;39326;42.650;23.248;2022-12-18T07:26:46;93675.28;;;3.03;78.84
53041;BME280;39326;42.650;23.248;2022-12-18T07:29:11;93675.28;;;3.03;79.02
53041;BME280;39326;42.650;23.248;2022-12-18T07:31:36;93692.94;;;2.86;79.80
53041;BME280;39326;42.650;23.248;2022-12-18T07:34:02;93693.25;;;2.93;78.35
53041;BME280;39326;42.650;23.248;2022-12-18T07:36:27;93689.19;;;2.78;78.01
53041;BME280;39326;42.650;23.248;2022-12-18T07:38:53;93699.75;;;2.87;78.66
53041;BME280;39326;42.650;23.248;2022-12-18T07:41:19;93702.38;;;2.87;79.47
53041;BME280;39326;42.650;23.248;2022-12-18T07:43:44;93694.50;;;2.87;79.59
53041;BME280;39326;42.650;23.248;2022-12-18T07:46:11;93701.00;;;2.89;77.93
53041;BME280;39326;42.650;23.248;2022-12-18T07:48:39;93699.47;;;2.97;78.00
53041;BME280;39326;42.650;23.248;2022-12-18T07:51:06;93691.81;;;2.78;77.64
53041;BME280;39326;42.650;23.248;2022-12-18T07:53:32;93704.09;;;2.91;78.29
53041;BME280;39326;42.650;23.248;2022-12-18T07:55:59;93705.50;;;2.89;79.41
53041;BME280;39326;42.650;23.248;2022-12-18T07:58:25;93702.38;;;2.87;78.37
53041;BME280;39326;42.650;23.248;2022-12-18T08:00:50;93711.38;;;2.86;78.82
53041;BME280;39326;42.650;23.248;2022-12-18T08:03:17;93708.13;;;2.89;77.92
53041;BME280;39326;42.650;23.248;2022-12-18T08:05:43;93707.78;;;2.73;77.55
53041;BME280;39326;42.650;23.248;2022-12-18T08:08:08;93716.13;;;2.75;78.71
53041;BME280;39326;42.650;23.248;2022-12-18T08:10:34;93718.88;;;2.61;78.69
53041;BME280;39326;42.650;23.248;2022-12-18T08:12:59;93722.78;;;2.72;78.25
53041;BME280;39326;42.650;23.248;2022-12-18T08:15:24;93731.41;;;2.64;78.16
53041;BME280;39326;42.650;23.248;2022-12-18T08:17:50;93735.66;;;2.74;78.45
53041;BME280;39326;42.650;23.248;2022-12-18T08:20:15;93740.22;;;2.60;78.56
53041;BME280;39326;42.650;23.248;2022-12-18T08:22:42;93719.00;;;2.56;79.33
53041;BME280;39326;42.650;23.248;2022-12-18T08:25:08;93747.31;;;2.82;79.60
53041;BME280;39326;42.650;23.248;2022-12-18T08:27:34;93742.59;;;2.70;79.21
53041;BME280;39326;42.650;23.248;2022-12-18T08:29:59;93737.34;;;2.78;78.72
53041;BME280;39326;42.650;23.248;2022-12-18T08:32:26;93751.41;;;2.65;78.54
53041;BME280;39326;42.650;23.248;2022-12-18T08:34:52;93752.69;;;2.76;78.02
53041;BME280;39326;42.650;23.248;2022-12-18T08:37:17;93755.31;;;2.76;78.80
53041;BME280;39326;42.650;23.248;2022-12-18T08:39:43;93751.31;;;2.79;78.77
53041;BME280;39326;42.650;23.248;2022-12-18T08:42:08;93756.31;;;2.89;78.67
53041;BME280;39326;42.650;23.248;2022-12-18T08:44:52;93758.63;;;2.91;78.02
53041;BME280;39326;42.650;23.248;2022-12-18T08:47:17;93750.28;;;2.97;77.88
53041;BME280;39326;42.650;23.248;2022-12-18T08:49:43;93763.31;;;2.94;78.81
53041;BME280;39326;42.650;23.248;2022-12-18T08:52:08;93749.38;;;3.02;78.65
53041;BME280;39326;42.650;23.248;2022-12-18T08:54:34;93758.44;;;3.18;78.77
53041;BME280;39326;42.650;23.248;2022-12-18T08:57:00;93753.69;;;3.38;78.08
53041;BME280;39326;42.650;23.248;2022-12-18T08:59:25;93762.19;;;3.34;77.17
53041;BME280;39326;42.650;23.248;2022-12-18T09:01:53;93747.03;;;3.49;76.89
53041;BME280;39326;42.650;23.248;2022-12-18T09:04:18;93752.78;;;3.59;77.53
53041;BME280;39326;42.650;23.248;2022-12-18T09:06:44;93746.75;;;3.68;77.89
53041;BME280;39326;42.650;23.248;2022-12-18T09:09:10;93748.88;;;3.40;79.50
53041;BME280;39326;42.650;23.248;2022-12-18T09:11:36;93749.81;;;3.44;79.08
53041;BME280;39326;42.650;23.248;2022-12-18T09:14:01;93742.69;;;3.53;79.72
53041;BME280;39326;42.650;23.248;2022-12-18T09:16:28;93747.03;;;3.57;79.83
53041;BME280;39326;42.650;23.248;2022-12-18T09:18:56;93745.63;;;3.51;79.65
53041;BME280;39326;42.650;23.248;2022-12-18T09:21:26;93743.44;;;3.53;79.90
53041;BME280;39326;42.650;23.248;2022-12-18T09:23:54;93744.38;;;3.31;79.57
53041;BME280;39326;42.650;23.248;2022-12-18T09:26:23;93743.00;;;3.51;79.79
53041;BME280;39326;42.650;23.248;2022-12-18T09:28:50;93746.25;;;3.57;79.15
53041;BME280;39326;42.650;23.248;2022-12-18T09:31:17;93743.00;;;3.51;80.00
53041;BME280;39326;42.650;23.248;2022-12-18T09:33:43;93747.03;;;3.49;79.46
53041;BME280;39326;42.650;23.248;2022-12-18T09:36:12;93747.63;;;3.37;80.22
53041;BME280;39326;42.650;23.248;2022-12-18T09:38:37;93755.22;;;3.39;80.36
53041;BME280;39326;42.650;23.248;2022-12-18T09:41:13;93759.72;;;3.29;79.91
53041;BME280;39326;42.650;23.248;2022-12-18T09:43:49;93758.91;;;3.20;79.56
53041;BME280;39326;42.650;23.248;2022-12-18T09:46:26;93761.88;;;3.27;79.93
53041;BME280;39326;42.650;23.248;2022-12-18T09:48:57;93764.03;;;3.17;79.24
53041;BME280;39326;42.650;23.248;2022-12-18T09:51:31;93756.41;;;3.15;79.78
53041;BME280;39326;42.650;23.248;2022-12-18T09:54:03;93749.56;;;3.05;80.81
53041;BME280;39326;42.650;23.248;2022-12-18T09:56:35;93747.25;;;3.04;80.34
53041;BME280;39326;42.650;23.248;2022-12-18T09:59:03;93747.13;;;3.26;80.60
53041;BME280;39326;42.650;23.248;2022-12-18T10:01:30;93745.19;;;3.49;79.90
53041;BME280;39326;42.650;23.248;2022-12-18T10:03:57;93740.22;;;3.65;80.41
53041;BME280;39326;42.650;23.248;2022-12-18T10:09:08;93739.41;;;3.39;78.61
53041;BME280;39326;42.650;23.248;2022-12-18T10:11:58;93740.63;;;3.41;78.96
53041;BME280;39326;42.650;23.248;2022-12-18T10:20:38;93749.22;;;3.73;77.53
53041;BME280;39326;42.650;23.248;2022-12-18T10:23:21;93757.72;;;3.52;77.29
53041;BME280;39326;42.650;23.248;2022-12-18T10:26:03;93757.44;;;3.63;77.06
53041;BME280;39326;42.650;23.248;2022-12-18T10:28:31;93758.50;;;3.44;76.87
53041;BME280;39326;42.650;23.248;2022-12-18T10:30:57;93758.81;;;3.60;77.63
53041;BME280;39326;42.650;23.248;2022-12-18T10:33:27;93754.19;;;3.66;76.95
53041;BME280;39326;42.650;23.248;2022-12-18T10:35:53;93754.97;;;3.75;77.18
53041;BME280;39326;42.650;23.248;2022-12-18T10:43:21;93753.03;;;3.23;77.13
53041;BME280;39326;42.650;23.248;2022-12-18T10:46:20;93759.13;;;2.93;77.37
53041;BME280;39326;42.650;23.248;2022-12-18T10:51:26;93768.47;;;3.07;76.43
53041;BME280;39326;42.650;23.248;2022-12-18T10:54:16;93765.06;;;3.07;75.96
53041;BME280;39326;42.650;23.248;2022-12-18T10:56:43;93767.91;;;3.19;76.41
53041;BME280;39326;42.650;23.248;2022-12-18T10:59:11;93761.06;;;3.18;75.87
53041;BME280;39326;42.650;23.248;2022-12-18T11:01:54;93767.50;;;2.95;73.68
53041;BME280;39326;42.650;23.248;2022-12-18T11:04:29;93759.66;;;3.12;76.02
53041;BME280;39326;42.650;23.248;2022-12-18T11:06:58;93760.91;;;3.15;76.48
53041;BME280;39326;42.650;23.248;2022-12-18T11:09:35;93761.97;;;3.14;74.82
53041;BME280;39326;42.650;23.248;2022-12-18T11:12:14;93768.84;;;3.23;75.11
53041;BME280;39326;42.650;23.248;2022-12-18T11:14:46;93766.22;;;3.32;74.77
53041;BME280;39326;42.650;23.248;2022-12-18T11:17:28;93767.91;;;3.28;72.86
53041;BME280;39326;42.650;23.248;2022-12-18T11:19:59;93772.84;;;3.21;72.56
53041;BME280;39326;42.650;23.248;2022-12-18T11:22:31;93781.81;;;3.11;70.37
53041;BME280;39326;42.650;23.248;2022-12-18T11:27:37;93784.44;;;2.71;71.92
53041;BME280;39326;42.650;23.248;2022-12-18T11:30:30;93783.63;;;2.93;71.52
53041;BME280;39326;42.650;23.248;2022-12-18T11:33:18;93776.63;;;2.89;71.33
53041;BME280;39326;42.650;23.248;2022-12-18T11:35:52;93782.19;;;2.87;70.09
53041;BME280;39326;42.650;23.248;2022-12-18T11:38:33;93774.69;;;3.12;70.85
53041;BME280;39326;42.650;23.248;2022-12-18T11:41:28;93775.19;;;3.22;68.89
53041;BME280;39326;42.650;23.248;2022-12-18T11:44:22;93781.06;;;3.19;68.92
53041;BME280;39326;42.650;23.248;2022-12-18T11:46:55;93776.88;;;3.18;68.30
53041;BME280;39326;42.650;23.248;2022-12-18T11:49:27;93782.31;;;3.22;67.55
53041;BME280;39326;42.650;23.248;2022-12-18T11:52:23;93781.06;;;3.11;67.58
53041;BME280;39326;42.650;23.248;2022-12-18T11:54:56;93786.59;;;3.00;67.32
53041;BME280;39326;42.650;23.248;2022-12-18T12:00:15;93764.41;;;2.93;69.58
53041;BME280;39326;42.650;23.248;2022-12-18T12:05:20;93772.09;;;3.29;69.37
53041;BME280;39326;42.650;23.248;2022-12-18T12:10:35;93768.06;;;3.23;69.71
53041;BME280;39326;42.650;23.248;2022-12-18T12:13:17;93767.88;;;3.11;69.25
53041;BME280;39326;42.650;23.248;2022-12-18T12:26:13;93758.41;;;2.70;68.08
53041;BME280;39326;42.650;23.248;2022-12-18T12:34:23;93773.63;;;2.73;68.69
53041;BME280;39326;42.650;23.248;2022-12-18T12:39:36;93773.66;;;2.59;69.12
53041;BME280;39326;42.650;23.248;2022-12-18T12:42:06;93777.50;;;2.84;69.96
53041;BME280;39326;42.650;23.248;2022-12-18T12:44:56;93777.19;;;2.77;69.72
53041;BME280;39326;42.650;23.248;2022-12-18T12:47:27;93777.56;;;2.62;69.53
53041;BME280;39326;42.650;23.248;2022-12-18T12:49:55;93782.88;;;2.70;69.14
53041;BME280;39326;42.650;23.248;2022-12-18T12:52:31;93776.84;;;2.70;69.43
53041;BME280;39326;42.650;23.248;2022-12-18T12:55:00;93780.91;;;2.53;69.57
53041;BME280;39326;42.650;23.248;2022-12-18T12:57:34;93786.91;;;2.68;70.06
53041;BME280;39326;42.650;23.248;2022-12-18T13:00:13;93783.06;;;2.74;70.10
53041;BME280;39326;42.650;23.248;2022-12-18T13:02:51;93789.09;;;2.74;70.36
53041;BME280;39326;42.650;23.248;2022-12-18T13:08:06;93790.84;;;2.79;70.77
53041;BME280;39326;42.650;23.248;2022-12-18T13:10:41;93795.31;;;2.78;70.39
53041;BME280;39326;42.650;23.248;2022-12-18T13:13:11;93802.09;;;2.71;70.40
53041;BME280;39326;42.650;23.248;2022-12-18T13:15:49;93784.91;;;2.73;70.96
53041;BME280;39326;42.650;23.248;2022-12-18T13:18:28;93800.56;;;2.78;71.98
53041;BME280;39326;42.650;23.248;2022-12-18T13:25:48;93807.63;;;2.92;71.22
53041;BME280;39326;42.650;23.248;2022-12-18T13:28:16;93814.03;;;2.99;71.43
53041;BME280;39326;42.650;23.248;2022-12-18T13:30:43;93808.84;;;2.86;70.82
53041;BME280;39326;42.650;23.248;2022-12-18T13:35:39;93818.59;;;2.85;71.43
53041;BME280;39326;42.650;23.248;2022-12-18T13:38:21;93808.69;;;2.91;71.43
53041;BME280;39326;42.650;23.248;2022-12-18T13:43:33;93809.22;;;3.01;70.92
53041;BME280;39326;42.650;23.248;2022-12-18T13:46:29;93821.78;;;3.04;71.17
53041;BME280;39326;42.650;23.248;2022-12-18T13:49:20;93822.38;;;3.01;70.55
53041;BME280;39326;42.650;23.248;2022-12-18T13:51:57;93818.22;;;3.09;71.48
53041;BME280;39326;42.650;23.248;2022-12-18T13:54:37;93825.22;;;3.05;71.95
53041;BME280;39326;42.650;23.248;2022-12-18T13:57:05;93829.38;;;3.06;71.04
53041;BME280;39326;42.650;23.248;2022-12-18T13:59:39;93823.59;;;2.95;71.56
53041;BME280;39326;42.650;23.248;2022-12-18T14:02:16;93835.75;;;3.05;70.57
53041;BME280;39326;42.650;23.248;2022-12-18T14:04:46;93838.38;;;3.05;70.98
53041;BME280;39326;42.650;23.248;2022-12-18T14:07:17;93832.47;;;2.99;71.00
53041;BME280;39326;42.650;23.248;2022-12-18T14:09:46;93834.31;;;2.99;71.18
53041;BME280;39326;42.650;23.248;2022-12-18T14:12:20;93835.75;;;3.05;71.49
53041;BME280;39326;42.650;23.248;2022-12-18T14:15:09;93840.63;;;2.89;72.25
53041;BME280;39326;42.650;23.248;2022-12-18T14:17:42;93848.34;;;2.86;71.68
53041;BME280;39326;42.650;23.248;2022-12-18T14:20:14;93843.97;;;2.81;71.77
53041;BME280;39326;42.650;23.248;2022-12-18T14:22:43;93849.16;;;2.95;71.50
53041;BME280;39326;42.650;23.248;2022-12-18T14:27:46;93847.75;;;2.89;71.51
53041;BME280;39326;42.650;23.248;2022-12-18T14:30:33;93855.19;;;2.87;70.90
53041;BME280;39326;42.650;23.248;2022-12-18T14:33:11;93855.69;;;2.97;70.91
53041;BME280;39326;42.650;23.248;2022-12-18T14:35:51;93849.13;;;2.86;71.68